createdAt,value
2018-09-25T00:55:44.735Z,22.7
2018-09-25T00:56:33.424Z,22.7
2018-09-25T00:57:24.258Z,22.7
2018-09-25T00:58:13.787Z,22.7
2018-09-25T00:59:04.146Z,22.7
2018-09-25T00:59:53.341Z,22.7
2018-09-25T01:00:44.563Z,22.7
2018-09-25T01:01:34.291Z,22.7
2018-09-25T01:02:24.367Z,22.7
2018-09-25T01:03:14.208Z,22.7
2018-09-25T01:04:04.523Z,22.7
2018-09-25T01:04:54.817Z,22.7
2018-09-25T01:05:44.336Z,22.7
2018-09-25T01:06:34.485Z,22.7
2018-09-25T01:07:24.237Z,22.7
2018-09-25T01:08:14.481Z,22.7
2018-09-25T01:09:04.843Z,22.7
2018-09-25T01:09:54.332Z,22.7
2018-09-25T01:10:44.437Z,22.7
2018-09-25T01:11:34.812Z,22.7
2018-09-25T01:12:24.829Z,22.7
2018-09-25T01:13:14.877Z,22.7
2018-09-25T01:14:04.379Z,22.7
2018-09-25T01:14:55.075Z,22.7
2018-09-25T01:15:45.324Z,22.7
2018-09-25T01:16:35.462Z,22.7
2018-09-25T01:17:25.480Z,22.7
2018-09-25T01:18:14.963Z,22.7
2018-09-25T01:19:06.466Z,22.7
2018-09-25T01:19:55.664Z,22.7
2018-09-25T01:20:45.452Z,22.7
2018-09-25T01:21:34.649Z,22.7
2018-09-25T01:22:25.004Z,22.7
2018-09-25T01:23:15.602Z,22.7
2018-09-25T01:24:05.690Z,22.7
2018-09-25T01:24:55.861Z,22.7
2018-09-25T01:25:46.101Z,22.7
2018-09-25T01:26:35.586Z,22.7
2018-09-25T01:27:25.990Z,22.7
2018-09-25T01:28:14.901Z,22.7
2018-09-25T01:29:06.088Z,22.7
2018-09-25T01:29:56.443Z,22.7
2018-09-25T01:30:45.373Z,22.7
2018-09-25T01:31:36.269Z,22.7
2018-09-25T01:32:26.376Z,22.7
2018-09-25T01:33:16.131Z,22.7
2018-09-25T01:34:06.427Z,22.7
2018-09-25T01:34:56.315Z,22.7
2018-09-25T01:35:47.106Z,22.7
2018-09-25T01:36:36.858Z,22.7
2018-09-25T01:37:26.355Z,22.7
2018-09-25T01:38:17.600Z,22.7
2018-09-25T01:39:07.089Z,22.7
2018-09-25T01:39:57.668Z,22.7
2018-09-25T01:40:46.495Z,22.7
2018-09-25T01:41:36.973Z,22.7
2018-09-25T01:42:27.052Z,22.7
2018-09-25T01:43:16.873Z,22.7
2018-09-25T01:44:07.175Z,22.7
2018-09-25T01:44:56.660Z,22.7
2018-09-25T01:45:47.583Z,22.7
2018-09-25T01:46:37.726Z,22.7
2018-09-25T01:47:27.548Z,22.7
2018-09-25T01:48:18.351Z,22.7
2018-09-25T01:49:07.877Z,22.7
2018-09-25T01:49:57.677Z,22.7
2018-09-25T01:50:47.394Z,22.7
2018-09-25T01:51:38.029Z,22.7
2018-09-25T01:52:28.650Z,22.7
2018-09-25T01:53:17.912Z,22.7
2018-09-25T01:54:07.630Z,22.7
2018-09-25T01:54:58.369Z,22.6
2018-09-25T01:55:48.394Z,22.7
2018-09-25T01:56:37.558Z,22.7
2018-09-25T01:57:28.831Z,22.7
2018-09-25T01:58:17.989Z,22.7
2018-09-25T01:59:08.335Z,22.7
2018-09-25T01:59:58.357Z,22.7
2018-09-25T02:00:48.437Z,22.7
2018-09-25T02:01:38.479Z,22.7
2018-09-25T02:02:29.175Z,22.7
2018-09-25T02:03:18.936Z,22.7
2018-09-25T02:04:08.971Z,22.7
2018-09-25T02:04:58.477Z,22.7
2018-09-25T02:05:48.810Z,22.7
2018-09-25T02:06:39.168Z,22.7
2018-09-25T02:07:28.437Z,22.7
2018-09-25T02:08:19.564Z,22.7
2018-09-25T02:09:09.064Z,22.7
2018-09-25T02:09:59.425Z,22.7
2018-09-25T02:10:48.860Z,22.7
2018-09-25T02:11:39.249Z,22.7
2018-09-25T02:12:29.037Z,22.7
2018-09-25T02:13:19.918Z,22.7
2018-09-25T02:14:09.968Z,22.7
2018-09-25T02:14:59.746Z,22.7
2018-09-25T02:15:49.499Z,22.7
2018-09-25T02:16:39.952Z,22.7
2018-09-25T02:17:29.692Z,22.7
2018-09-25T02:18:19.821Z,22.7
2018-09-25T02:19:10.621Z,22.7
2018-09-25T02:19:59.838Z,22.7
2018-09-25T02:20:50.249Z,22.6
2018-09-25T02:21:39.996Z,22.7
2018-09-25T02:22:30.653Z,22.7
2018-09-25T02:23:20.958Z,22.7
2018-09-25T02:24:10.089Z,22.7
2018-09-25T02:25:00.803Z,22.7
2018-09-25T02:25:50.640Z,22.7
2018-09-25T02:26:39.315Z,22.7
2018-09-25T02:27:29.648Z,22.7
2018-09-25T02:28:19.698Z,22.7
2018-09-25T02:29:10.092Z,22.7
2018-09-25T02:29:58.952Z,22.7
2018-09-25T02:30:49.003Z,22.7
2018-09-25T02:31:40.199Z,22.7
2018-09-25T02:32:29.498Z,22.7
2018-09-25T02:33:20.683Z,22.7
2018-09-25T02:34:09.151Z,22.6
2018-09-25T02:35:01.272Z,22.7
2018-09-25T02:35:51.381Z,22.7
2018-09-25T02:36:41.622Z,22.7
2018-09-25T02:37:31.477Z,22.7
2018-09-25T02:38:20.968Z,22.7
2018-09-25T02:39:11.604Z,22.7
2018-09-25T02:40:01.436Z,22.7
2018-09-25T02:40:51.746Z,22.7
2018-09-25T02:41:41.774Z,22.7
2018-09-25T02:42:30.949Z,22.7
2018-09-25T02:43:21.611Z,22.7
2018-09-25T02:44:12.262Z,22.6
2018-09-25T02:45:02.035Z,22.7
2018-09-25T02:45:51.547Z,22.7
2018-09-25T02:46:42.697Z,22.6
2018-09-25T02:47:32.211Z,22.7
2018-09-25T02:48:22.284Z,22.6
2018-09-25T02:49:12.311Z,22.6
2018-09-25T02:50:02.098Z,22.6
2018-09-25T02:50:52.481Z,22.7
2018-09-25T02:51:42.783Z,22.7
2018-09-25T02:52:32.315Z,22.6
2018-09-25T02:53:22.654Z,22.7
2018-09-25T02:54:12.697Z,22.7
2018-09-25T02:55:01.393Z,22.7
2018-09-25T02:55:52.846Z,22.7
2018-09-25T02:56:43.201Z,22.7
2018-09-25T02:57:32.931Z,22.6
2018-09-25T02:58:23.026Z,22.6
2018-09-25T02:59:12.829Z,22.6
2018-09-25T03:00:02.895Z,22.7
2018-09-25T03:00:53.295Z,22.7
2018-09-25T03:01:43.047Z,22.7
2018-09-25T03:02:33.307Z,22.7
2018-09-25T03:03:23.656Z,22.6
2018-09-25T03:04:13.519Z,22.6
2018-09-25T03:05:03.714Z,22.7
2018-09-25T03:05:53.420Z,22.6
2018-09-25T03:06:43.940Z,22.6
2018-09-25T03:07:34.044Z,22.6
2018-09-25T03:08:24.049Z,22.6
2018-09-25T03:09:14.141Z,22.7
2018-09-25T03:10:03.930Z,22.6
2018-09-25T03:10:53.985Z,22.6
2018-09-25T03:11:44.325Z,22.6
2018-09-25T03:12:34.706Z,22.6
2018-09-25T03:13:23.833Z,22.6
2018-09-25T03:14:14.290Z,22.6
2018-09-25T03:15:04.595Z,22.7
2018-09-25T03:15:54.346Z,22.6
2018-09-25T03:16:44.407Z,22.7
2018-09-25T03:17:34.744Z,22.6
2018-09-25T03:18:24.577Z,22.6
2018-09-25T03:19:15.239Z,22.7
2018-09-25T03:20:04.875Z,22.6
2018-09-25T03:20:54.155Z,22.6
2018-09-25T03:21:44.530Z,22.6
2018-09-25T03:22:34.929Z,22.6
2018-09-25T03:23:24.370Z,22.6
2018-09-25T03:24:14.453Z,22.6
2018-09-25T03:25:04.839Z,22.6
2018-09-25T03:25:55.133Z,22.6
2018-09-25T03:26:45.161Z,22.6
2018-09-25T03:27:34.632Z,22.6
2018-09-25T03:28:25.032Z,22.6
2018-09-25T03:29:15.328Z,22.6
2018-09-25T03:30:05.683Z,22.6
2018-09-25T03:30:55.444Z,22.6
2018-09-25T03:31:45.359Z,22.6
2018-09-25T03:32:35.730Z,22.6
2018-09-25T03:33:25.053Z,22.6
2018-09-25T03:34:15.729Z,22.6
2018-09-25T03:35:05.161Z,22.6
2018-09-25T03:35:55.824Z,22.6
2018-09-25T03:36:45.615Z,22.6
2018-09-25T03:37:36.023Z,22.6
2018-09-25T03:38:26.043Z,22.6
2018-09-25T03:39:16.252Z,22.6
2018-09-25T03:40:05.949Z,22.6
2018-09-25T03:40:56.567Z,22.6
2018-09-25T03:41:46.217Z,22.6
2018-09-25T03:42:35.745Z,22.6
2018-09-25T03:43:26.067Z,22.6
2018-09-25T03:44:16.219Z,22.6
2018-09-25T03:45:06.818Z,22.6
2018-09-25T03:45:56.668Z,22.6
2018-09-25T03:46:46.596Z,22.6
2018-09-25T03:47:36.101Z,22.6
2018-09-25T03:48:25.879Z,22.6
2018-09-25T05:24:35.697Z,22.6
2018-09-25T05:25:25.384Z,22.6
2018-09-25T05:26:15.213Z,22.5
2018-09-25T05:27:05.303Z,22.6
2018-09-25T05:27:54.732Z,22.5
2018-09-25T05:28:45.667Z,22.5
2018-09-25T05:29:35.227Z,22.5
2018-09-25T05:30:25.399Z,22.5
2018-09-25T05:31:15.324Z,22.5
2018-09-25T05:32:04.864Z,22.5
2018-09-25T05:32:55.444Z,22.5
2018-09-25T05:33:44.656Z,22.5
2018-09-25T05:34:35.323Z,22.5
2018-09-25T05:35:25.929Z,22.5
2018-09-25T05:36:15.044Z,22.5
2018-09-25T05:37:05.159Z,22.5
2018-09-25T05:37:56.047Z,22.5
2018-09-25T05:38:46.396Z,22.5
2018-09-25T05:39:35.927Z,22.5
2018-09-25T05:40:26.532Z,22.5
2018-09-25T05:41:16.319Z,22.5
2018-09-25T05:42:06.594Z,22.5
2018-09-25T05:42:56.131Z,22.5
2018-09-25T05:43:46.451Z,22.5
2018-09-25T05:44:36.568Z,22.5
2018-09-25T05:45:26.301Z,22.5
2018-09-25T05:46:16.684Z,22.5
2018-09-25T05:47:06.715Z,22.6
2018-09-25T05:47:56.876Z,22.6
2018-09-25T05:48:48.599Z,22.5
2018-09-25T05:49:36.528Z,22.5
2018-09-25T05:50:27.491Z,22.5
2018-09-25T05:51:17.507Z,22.5
2018-09-25T05:52:06.794Z,22.5
2018-09-25T05:52:57.008Z,22.5
2018-09-25T05:53:48.141Z,22.5
2018-09-25T05:54:37.485Z,22.5
2018-09-25T05:55:27.459Z,22.5
2018-09-25T05:56:17.186Z,22.5
2018-09-25T05:57:07.513Z,22.5
2018-09-25T05:57:57.814Z,22.5
2018-09-25T05:58:47.901Z,22.5
2018-09-25T05:59:37.671Z,22.5
2018-09-25T06:00:28.019Z,22.5
2018-09-25T06:01:18.393Z,22.5
2018-09-25T06:02:08.141Z,22.5
2018-09-25T06:02:57.906Z,22.5
2018-09-25T06:03:47.663Z,22.5
2018-09-25T06:04:38.053Z,22.5
2018-09-25T06:05:28.618Z,22.5
2018-09-25T06:06:17.942Z,22.5
2018-09-25T06:07:08.503Z,22.5
2018-09-25T06:07:58.043Z,22.5
2018-09-25T06:08:48.339Z,22.5
2018-09-25T06:09:39.369Z,22.5
2018-09-25T06:10:28.189Z,22.5
2018-09-25T06:11:19.110Z,22.5
2018-09-25T06:12:08.285Z,22.5
2018-09-25T06:12:58.188Z,22.5
2018-09-25T06:13:48.690Z,22.5
2018-09-25T06:14:38.332Z,22.5
2018-09-25T06:15:28.635Z,22.5
2018-09-25T06:16:18.404Z,22.5
2018-09-25T06:17:08.166Z,22.5
2018-09-25T06:17:58.527Z,22.5
2018-09-25T06:18:48.606Z,22.5
2018-09-25T06:19:38.974Z,22.5
2018-09-25T06:20:29.567Z,22.5
2018-09-25T06:21:19.294Z,22.5
2018-09-25T06:22:09.324Z,22.5
2018-09-25T06:23:00.223Z,22.5
2018-09-25T06:23:49.207Z,22.5
2018-09-25T06:24:39.523Z,22.5
2018-09-25T06:25:29.589Z,22.5
2018-09-25T06:26:19.692Z,22.5
2018-09-25T06:27:09.760Z,22.5
2018-09-25T06:27:59.552Z,22.5
2018-09-25T06:28:51.291Z,22.5
2018-09-25T06:29:40.004Z,22.5
2018-09-25T06:30:30.557Z,22.5
2018-09-25T06:31:20.861Z,22.5
2018-09-25T06:32:09.950Z,22.5
2018-09-25T06:33:00.151Z,22.5
2018-09-25T06:33:50.299Z,22.5
2018-09-25T06:34:41.364Z,22.5
2018-09-25T06:35:30.315Z,22.5
2018-09-25T06:36:20.981Z,22.5
2018-09-25T06:37:10.585Z,22.5
2018-09-25T06:38:00.032Z,22.5
2018-09-25T06:38:50.858Z,22.5
2018-09-25T06:39:40.678Z,22.5
2018-09-25T06:40:30.816Z,22.5
2018-09-25T06:41:21.339Z,22.5
2018-09-25T06:42:10.848Z,22.5
2018-09-25T06:43:01.171Z,22.5
2018-09-25T06:43:50.426Z,22.5
2018-09-25T06:44:39.851Z,22.5
2018-09-25T06:45:31.386Z,22.4
2018-09-25T06:46:22.099Z,22.5
2018-09-25T06:47:11.997Z,22.5
2018-09-25T06:48:01.291Z,22.5
2018-09-25T06:48:51.620Z,22.5
2018-09-25T06:49:41.655Z,22.5
2018-09-25T06:50:31.155Z,22.5
2018-09-25T06:51:21.602Z,22.5
2018-09-25T06:52:11.340Z,22.4
2018-09-25T06:53:01.595Z,22.5
2018-09-25T06:53:51.375Z,22.5
2018-09-25T06:54:42.378Z,22.5
2018-09-25T06:55:31.823Z,22.5
2018-09-25T06:56:21.295Z,22.5
2018-09-25T06:57:12.306Z,22.4
2018-09-25T06:58:00.648Z,22.4
2018-09-25T06:58:52.398Z,22.5
2018-09-25T06:59:42.718Z,22.5
2018-09-25T07:00:32.522Z,22.5
2018-09-25T07:01:22.589Z,22.5
2018-09-25T07:02:12.948Z,22.5
2018-09-25T07:03:02.737Z,22.5
2018-09-25T07:03:52.714Z,22.5
2018-09-25T07:04:42.499Z,22.4
2018-09-25T07:05:32.902Z,22.5
2018-09-25T07:06:22.374Z,22.5
2018-09-25T07:07:13.071Z,22.5
2018-09-25T07:08:02.518Z,22.5
2018-09-25T07:08:52.985Z,22.5
2018-09-25T07:09:45.013Z,22.4
2018-09-25T07:10:36.240Z,22.5
2018-09-25T07:11:23.362Z,22.4
2018-09-25T07:12:13.642Z,22.4
2018-09-25T07:13:02.874Z,22.4
2018-09-25T07:13:52.942Z,22.4
2018-09-25T07:14:42.782Z,22.4
2018-09-25T07:15:33.327Z,22.4
2018-09-25T07:16:22.809Z,22.5
2018-09-25T07:17:13.803Z,22.4
2018-09-25T07:18:04.982Z,22.4
2018-09-25T07:18:53.563Z,22.4
2018-09-25T07:19:43.423Z,22.5
2018-09-25T07:20:33.698Z,22.4
2018-09-25T07:21:24.021Z,22.4
2018-09-25T07:22:14.115Z,22.5
2018-09-25T07:23:04.351Z,22.5
2018-09-25T07:23:53.625Z,22.4
2018-09-25T07:24:45.903Z,22.4
2018-09-25T07:25:33.864Z,22.4
2018-09-25T07:26:23.542Z,22.4
2018-09-25T07:27:13.940Z,22.4
2018-09-25T07:28:04.543Z,22.4
2018-09-25T07:28:54.570Z,22.4
2018-09-25T07:29:44.673Z,22.4
2018-09-25T07:30:34.405Z,22.4
2018-09-25T07:31:24.755Z,22.4
2018-09-25T07:32:13.723Z,22.4
2018-09-25T07:33:05.178Z,22.4
2018-09-25T07:33:54.145Z,22.4
2018-09-25T07:34:45.053Z,22.4
2018-09-25T07:35:34.885Z,22.4
2018-09-25T07:36:25.145Z,22.4
2018-09-25T07:37:14.949Z,22.4
2018-09-25T07:38:04.959Z,22.4
2018-09-25T07:38:54.562Z,22.4
2018-09-25T07:39:43.593Z,22.4
2018-09-25T07:40:33.662Z,22.4
2018-09-25T07:41:23.634Z,22.4
2018-09-25T07:42:12.934Z,22.4
2018-09-25T07:43:03.994Z,22.4
2018-09-25T07:43:54.358Z,22.4
2018-09-25T07:44:44.779Z,22.4
2018-09-25T07:45:34.029Z,22.4
2018-09-25T07:46:24.844Z,22.4
2018-09-25T07:47:12.534Z,22.4
2018-09-25T07:48:06.114Z,22.4
2018-09-25T07:48:55.791Z,22.4
2018-09-25T07:49:45.591Z,22.4
2018-09-25T07:50:35.676Z,22.4
2018-09-25T07:51:25.703Z,22.4
2018-09-25T07:52:16.612Z,22.4
2018-09-25T07:53:06.571Z,22.4
2018-09-25T07:53:56.868Z,22.4
2018-09-25T07:54:46.999Z,22.4
2018-09-25T07:55:37.323Z,22.4
2018-09-25T07:56:27.309Z,22.4
2018-09-25T07:57:17.104Z,22.4
2018-09-25T07:58:07.127Z,22.5
2018-09-25T07:58:55.285Z,22.4
2018-09-25T07:59:46.023Z,22.4
2018-09-25T08:00:36.440Z,22.4
2018-09-25T08:01:26.733Z,22.5
2018-09-25T08:02:16.808Z,22.4
2018-09-25T08:03:06.893Z,22.4
2018-09-25T08:03:57.010Z,22.4
2018-09-25T08:04:46.140Z,22.4
2018-09-25T08:05:37.573Z,22.4
2018-09-25T08:06:27.077Z,22.4
2018-09-25T08:07:16.885Z,22.4
2018-09-25T08:08:07.263Z,22.4
2018-09-25T08:08:57.301Z,22.4
2018-09-25T08:09:46.910Z,22.5
2018-09-25T08:10:38.258Z,22.4
2018-09-25T08:11:27.269Z,22.4
2018-09-25T08:12:17.170Z,22.4
2018-09-25T08:13:06.273Z,22.4
2018-09-25T08:13:56.993Z,22.4
2018-09-25T08:14:47.656Z,22.4
2018-09-25T08:15:38.277Z,22.4
2018-09-25T08:16:27.380Z,22.4
2018-09-25T08:17:17.969Z,22.4
2018-09-25T08:18:07.991Z,22.4
2018-09-25T08:18:57.038Z,22.4
2018-09-25T08:19:48.414Z,22.4
2018-09-25T08:20:37.392Z,22.4
2018-09-25T08:21:27.692Z,22.4
2018-09-25T08:22:18.493Z,22.4
2018-09-25T08:23:08.635Z,22.4
2018-09-25T08:23:58.242Z,22.4
2018-09-25T08:24:48.287Z,22.4
2018-09-25T08:25:38.573Z,22.4
2018-09-25T08:26:28.882Z,22.4
2018-09-25T08:27:18.662Z,22.4
2018-09-25T08:28:08.242Z,22.5
2018-09-25T08:28:59.075Z,22.5
2018-09-25T08:29:50.559Z,22.5
2018-09-25T08:30:39.252Z,22.4
2018-09-25T08:31:29.007Z,22.4
2018-09-25T08:32:18.694Z,22.4
2018-09-25T08:33:08.592Z,22.4
2018-09-25T08:33:59.707Z,22.4
2018-09-25T08:34:49.817Z,22.4
2018-09-25T08:35:39.576Z,22.5
2018-09-25T08:36:29.137Z,22.5
2018-09-25T08:37:19.472Z,22.5
2018-09-25T08:38:09.484Z,22.5
2018-09-25T08:39:01.013Z,22.4
2018-09-25T08:39:49.216Z,22.4
2018-09-25T08:40:40.029Z,22.4
2018-09-25T08:41:29.450Z,22.5
2018-09-25T08:42:20.081Z,22.4
2018-09-25T08:43:09.379Z,22.5
2018-09-25T08:44:00.281Z,22.4
2018-09-25T08:44:50.249Z,22.4
2018-09-25T08:45:39.812Z,22.4
2018-09-25T08:46:30.080Z,22.5
2018-09-25T08:47:19.626Z,22.4
2018-09-25T08:48:09.728Z,22.5
2018-09-25T08:49:00.636Z,22.5
2018-09-25T08:49:50.341Z,22.5
2018-09-25T08:50:40.410Z,22.5
2018-09-25T08:51:30.465Z,22.5
2018-09-25T08:52:20.780Z,22.4
2018-09-25T08:53:09.423Z,22.4
2018-09-25T08:54:01.020Z,22.5
2018-09-25T08:54:50.738Z,22.4
2018-09-25T08:55:40.807Z,22.5
2018-09-25T08:56:31.163Z,22.4
2018-09-25T08:57:20.935Z,22.4
2018-09-25T08:58:11.247Z,22.5
2018-09-25T08:59:01.338Z,22.4
2018-09-25T08:59:51.125Z,22.4
2018-09-25T09:00:41.462Z,22.4
2018-09-25T09:01:31.525Z,22.4
2018-09-25T09:02:21.598Z,22.4
2018-09-25T09:03:11.612Z,22.4
2018-09-25T09:04:01.240Z,22.4
2018-09-25T09:04:51.295Z,22.4
2018-09-25T09:05:41.816Z,22.4
2018-09-25T09:06:32.153Z,22.4
2018-09-25T09:07:21.694Z,22.4
2018-09-25T09:08:11.681Z,22.4
2018-09-25T09:09:02.095Z,22.4
2018-09-25T09:09:52.110Z,22.4
2018-09-25T09:10:42.213Z,22.4
2018-09-25T09:11:31.746Z,22.4
2018-09-25T09:12:22.301Z,22.4
2018-09-25T09:13:12.386Z,22.4
2018-09-25T09:14:01.896Z,22.4
2018-09-25T09:14:52.489Z,22.4
2018-09-25T09:15:41.697Z,22.4
2018-09-25T09:16:32.349Z,22.4
2018-09-25T09:17:21.867Z,22.4
2018-09-25T09:18:12.231Z,22.4
2018-09-25T09:19:02.257Z,22.4
2018-09-25T09:19:54.460Z,22.4
2018-09-25T09:20:42.356Z,22.4
2018-09-25T09:21:32.498Z,22.4
2018-09-25T09:22:22.543Z,22.4
2018-09-25T09:39:14.714Z,22.3
2018-09-25T09:40:04.105Z,22.3
2018-09-25T09:40:53.775Z,22.4
2018-09-25T09:41:51.266Z,22.4
2018-09-25T09:42:34.483Z,22.4
2018-09-25T09:43:24.547Z,22.4
2018-09-25T09:44:14.040Z,22.3
2018-09-25T09:45:05.018Z,22.3
2018-09-25T09:45:54.762Z,22.3
2018-09-25T09:46:44.824Z,22.3
2018-09-25T09:47:34.282Z,22.3
2018-09-25T09:48:24.681Z,22.3
2018-09-25T09:49:14.974Z,22.3
2018-09-25T09:50:05.337Z,22.3
2018-09-25T09:50:54.780Z,22.3
2018-09-25T09:51:44.877Z,22.3
2018-09-25T09:52:34.741Z,22.2
2018-09-25T09:53:24.976Z,22.1
2018-09-25T09:54:13.963Z,22.1
2018-09-25T09:55:05.416Z,22.1
2018-09-25T09:55:53.451Z,22.1
2018-09-25T09:56:45.252Z,22
2018-09-25T09:57:34.728Z,22
2018-09-25T09:58:25.036Z,22
2018-09-25T09:59:15.704Z,22
2018-09-25T10:00:05.530Z,21.9
2018-09-25T10:00:55.818Z,21.9
2018-09-25T10:01:45.048Z,21.9
2018-09-25T10:02:35.988Z,21.9
2018-09-25T10:03:25.711Z,21.9
2018-09-25T10:04:15.621Z,21.9
2018-09-25T10:05:06.465Z,21.9
2018-09-25T10:05:56.640Z,21.9
2018-09-25T10:06:47.428Z,21.9
2018-09-25T10:07:36.058Z,21.9
2018-09-25T10:08:26.402Z,21.9
2018-09-25T10:09:16.499Z,21.9
2018-09-25T10:10:06.222Z,21.9
2018-09-25T10:10:55.550Z,21.9
2018-09-25T10:11:45.590Z,21.9
2018-09-25T10:12:37.993Z,21.9
2018-09-25T10:13:25.988Z,21.9
2018-09-25T10:14:16.141Z,21.9
2018-09-25T10:15:06.465Z,21.9
2018-09-25T10:15:56.433Z,21.9
2018-09-25T10:16:45.661Z,21.9
2018-09-25T10:17:36.117Z,21.9
2018-09-25T10:18:25.741Z,21.9
2018-09-25T10:19:17.199Z,21.9
2018-09-25T10:20:06.440Z,21.9
2018-09-25T10:20:56.618Z,21.8
2018-09-25T10:21:46.911Z,21.9
2018-09-25T10:22:36.671Z,21.8
2018-09-25T10:23:26.813Z,21.9
2018-09-25T10:24:16.333Z,21.9
2018-09-25T10:25:06.936Z,21.9
2018-09-25T10:25:56.995Z,21.9
2018-09-25T10:26:47.379Z,21.8
2018-09-25T10:27:37.934Z,21.9
2018-09-25T10:28:26.851Z,21.9
2018-09-25T10:29:17.200Z,21.9
2018-09-25T10:30:07.826Z,21.9
2018-09-25T10:30:56.743Z,21.9
2018-09-25T10:31:47.698Z,21.8
2018-09-25T10:32:37.454Z,21.9
2018-09-25T10:33:27.560Z,21.9
2018-09-25T10:34:19.182Z,21.9
2018-09-25T10:35:07.925Z,21.9
2018-09-25T10:35:57.510Z,21.9
2018-09-25T10:36:48.085Z,21.8
2018-09-25T10:37:37.868Z,21.9
2018-09-25T10:38:28.185Z,21.9
2018-09-25T10:39:18.205Z,21.9
2018-09-25T10:40:07.815Z,21.9
2018-09-25T10:40:59.089Z,21.9
2018-09-25T10:41:48.410Z,21.9
2018-09-25T10:42:38.820Z,21.9
2018-09-25T10:43:28.252Z,21.9
2018-09-25T10:44:17.849Z,21.9
2018-09-25T10:45:08.372Z,21.9
2018-09-25T10:45:59.305Z,21.9
2018-09-25T10:46:48.987Z,21.9
2018-09-25T10:47:37.765Z,21.9
2018-09-25T10:48:28.832Z,21.9
2018-09-25T10:49:18.749Z,21.9
2018-09-25T10:50:08.905Z,21.9
2018-09-25T10:50:59.247Z,21.9
2018-09-25T10:51:49.381Z,21.9
2018-09-25T10:52:39.154Z,21.9
2018-09-25T10:53:29.187Z,21.9
2018-09-25T10:54:19.836Z,21.9
2018-09-25T10:55:09.081Z,21.9
2018-09-25T10:56:03.032Z,21.9
2018-09-25T10:56:49.504Z,21.9
2018-09-25T10:57:39.948Z,21.9
2018-09-25T10:58:30.809Z,21.9
2018-09-25T10:59:20.066Z,21.9
2018-09-25T11:00:10.006Z,21.9
2018-09-25T11:01:00.371Z,21.9
2018-09-25T11:01:50.142Z,21.9
2018-09-25T11:02:39.743Z,21.9
2018-09-25T11:03:30.349Z,21.9
2018-09-25T11:04:20.307Z,21.9
2018-09-25T11:05:10.928Z,21.9
2018-09-25T11:06:00.254Z,21.9
2018-09-25T11:06:51.156Z,21.9
2018-09-25T11:07:40.849Z,21.9
2018-09-25T11:08:30.587Z,21.9
2018-09-25T11:09:20.436Z,21.9
2018-09-25T11:10:12.588Z,21.9
2018-09-25T11:11:00.394Z,21.9
2018-09-25T11:11:51.117Z,21.9
2018-09-25T11:12:40.137Z,21.9
2018-09-25T11:13:30.690Z,21.9
2018-09-25T11:14:20.539Z,21.9
2018-09-25T11:15:11.146Z,21.9
2018-09-25T11:16:01.404Z,22
2018-09-25T11:16:51.603Z,21.9
2018-09-25T11:17:40.801Z,21.9
2018-09-25T11:18:31.470Z,21.9
2018-09-25T11:19:21.748Z,21.9
2018-09-25T11:20:11.877Z,21.9
2018-09-25T11:21:01.663Z,22
2018-09-25T11:21:51.913Z,22
2018-09-25T11:22:41.621Z,22
2018-09-25T11:23:31.437Z,22
2018-09-25T11:24:21.781Z,22
2018-09-25T11:25:12.024Z,22
2018-09-25T11:26:01.940Z,22
2018-09-25T11:26:52.000Z,22
2018-09-25T11:27:42.318Z,22
2018-09-25T11:28:32.273Z,22
2018-09-25T11:29:21.322Z,22
2018-09-25T11:30:11.416Z,22
2018-09-25T11:31:02.876Z,22
2018-09-25T11:31:52.925Z,22
2018-09-25T11:32:41.372Z,22
2018-09-25T11:33:32.843Z,22
2018-09-25T11:34:22.565Z,22
2018-09-25T11:35:13.406Z,22
2018-09-25T11:36:02.695Z,22
2018-09-25T11:36:53.020Z,22
2018-09-25T11:37:43.028Z,22
2018-09-25T11:38:33.200Z,22
2018-09-25T11:39:23.251Z,22
2018-09-25T11:40:12.842Z,22
2018-09-25T11:41:04.103Z,22
2018-09-25T11:41:53.464Z,22.1
2018-09-25T11:42:44.104Z,22
2018-09-25T11:43:33.282Z,22
2018-09-25T11:44:23.871Z,22
2018-09-25T11:45:13.653Z,22.1
2018-09-25T11:46:03.868Z,22.1
2018-09-25T11:46:55.341Z,22.1
2018-09-25T11:47:44.106Z,22.1
2018-09-25T11:48:32.784Z,22.1
2018-09-25T11:49:23.962Z,22
2018-09-25T11:50:13.791Z,22.1
2018-09-25T11:51:03.806Z,22
2018-09-25T11:51:53.291Z,22.1
2018-09-25T11:52:44.870Z,22.1
2018-09-25T11:53:34.571Z,22.1
2018-09-25T11:54:24.066Z,22.1
2018-09-25T11:55:13.841Z,22.1
2018-09-25T11:56:03.613Z,22.1
2018-09-25T11:56:54.008Z,22.1
2018-09-25T11:57:43.581Z,22.1
2018-09-25T11:58:35.739Z,22.1
2018-09-25T11:59:24.156Z,22.1
2018-09-25T12:00:14.873Z,22.1
2018-09-25T12:01:04.656Z,22.1
2018-09-25T12:01:54.408Z,22.1
2018-09-25T12:02:44.446Z,22.1
2018-09-25T12:03:35.165Z,22.1
2018-09-25T12:04:24.437Z,22.1
2018-09-25T12:05:14.588Z,22.1
2018-09-25T12:06:04.373Z,22.1
2018-09-25T12:06:54.483Z,22.1
2018-09-25T12:07:45.380Z,22.1
2018-09-25T12:08:34.571Z,22.1
2018-09-25T12:09:23.917Z,22.1
2018-09-25T12:10:12.712Z,22.1
2018-09-25T12:11:04.172Z,22.1
2018-09-25T12:11:53.456Z,22.1
2018-09-25T12:12:43.712Z,22.1
2018-09-25T12:13:34.819Z,22.1
2018-09-25T12:14:23.857Z,22.1
2018-09-25T12:15:13.730Z,22.1
2018-09-25T12:16:04.092Z,22.1
2018-09-25T12:16:56.275Z,22.1
2018-09-25T12:17:46.084Z,22.1
2018-09-25T12:18:35.603Z,22.1
2018-09-25T12:19:24.874Z,22.1
2018-09-25T12:20:14.885Z,22.1
2018-09-25T12:21:05.776Z,22.1
2018-09-25T12:21:55.821Z,22.1
2018-09-25T12:22:46.217Z,22.1
2018-09-25T12:23:37.623Z,22.1
2018-09-25T12:24:27.765Z,22.1
2018-09-25T12:25:16.366Z,22.1
2018-09-25T12:26:06.729Z,22.1
2018-09-25T12:26:55.643Z,22.1
2018-09-25T12:27:46.274Z,22.1
2018-09-25T12:28:36.621Z,22.1
2018-09-25T12:29:26.401Z,22.1
2018-09-25T12:30:17.006Z,22.1
2018-09-25T12:31:06.831Z,22.1
2018-09-25T12:31:56.006Z,22.1
2018-09-25T12:32:49.746Z,22.1
2018-09-25T12:33:36.422Z,22.1
2018-09-25T12:34:26.731Z,22.1
2018-09-25T12:35:16.581Z,22.1
2018-09-25T12:36:07.175Z,22.1
2018-09-25T12:36:57.523Z,22.1
2018-09-25T12:37:47.847Z,22.1
2018-09-25T12:38:37.751Z,22.1
2018-09-25T12:39:27.397Z,22.1
2018-09-25T12:40:17.305Z,22.1
2018-09-25T12:41:08.276Z,22.1
2018-09-25T12:41:57.030Z,22.1
2018-09-25T12:42:47.940Z,22.2
2018-09-25T12:43:37.696Z,22.1
2018-09-25T12:44:27.803Z,22.1
2018-09-25T12:45:17.265Z,22.2
2018-09-25T12:46:08.212Z,22.1
2018-09-25T12:46:58.282Z,22.2
2018-09-25T12:47:47.460Z,22.2
2018-09-25T12:48:38.322Z,22.2
2018-09-25T12:49:27.045Z,22.1
2018-09-25T12:50:18.210Z,22.2
2018-09-25T12:51:07.717Z,22.1
2018-09-25T12:51:58.059Z,22.1
2018-09-25T12:52:48.687Z,22.2
2018-09-25T12:53:38.474Z,22.2
2018-09-25T12:54:28.840Z,22.2
2018-09-25T12:55:18.822Z,22.2
2018-09-25T12:56:08.356Z,22.2
2018-09-25T12:56:58.502Z,22.2
2018-09-25T12:57:49.327Z,22.2
2018-09-25T12:58:38.847Z,22.2
2018-09-25T12:59:28.911Z,22.2
2018-09-25T13:00:18.708Z,22.2
2018-09-25T13:01:09.009Z,22.2
2018-09-25T13:01:59.091Z,22.2
2018-09-25T13:02:49.179Z,22.2
2018-09-25T13:03:38.973Z,22.2
2018-09-25T13:04:29.036Z,22.2
2018-09-25T13:05:19.387Z,22.2
2018-09-25T13:06:10.044Z,22.2
2018-09-25T13:06:59.184Z,22.2
2018-09-25T13:07:49.263Z,22.2
2018-09-25T13:08:39.942Z,22.2
2018-09-25T13:09:29.883Z,22.2
2018-09-25T13:10:20.044Z,22.2
2018-09-25T13:11:09.841Z,22.2
2018-09-25T13:11:59.593Z,22.2
2018-09-25T13:12:49.078Z,22.2
2018-09-25T13:13:39.813Z,22.2
2018-09-25T13:14:29.815Z,22.2
2018-09-25T13:15:20.371Z,22.2
2018-09-25T13:16:11.447Z,22.2
2018-09-25T13:17:00.236Z,22.2
2018-09-25T13:17:50.608Z,22.2
2018-09-25T13:18:40.683Z,22.2
2018-09-25T13:19:29.332Z,22.2
2018-09-25T13:20:19.995Z,22.2
2018-09-25T13:21:11.373Z,22.2
2018-09-25T13:22:00.300Z,22.2
2018-09-25T13:22:50.978Z,22.2
2018-09-25T13:23:41.079Z,22.2
2018-09-25T13:24:30.823Z,22.2
2018-09-25T13:25:21.395Z,22.2
2018-09-25T13:26:11.437Z,22.2
2018-09-25T13:27:00.525Z,22.2
2018-09-25T13:27:51.342Z,22.2
2018-09-25T13:28:40.985Z,22.2
2018-09-25T13:29:31.470Z,22.2
2018-09-25T13:30:20.405Z,22.2
2018-09-25T13:31:11.567Z,22.2
2018-09-25T13:32:01.895Z,22.3
2018-09-25T13:32:51.389Z,22.2
2018-09-25T13:33:40.909Z,22.2
2018-09-25T13:34:31.594Z,22.3
2018-09-25T13:35:21.949Z,22.2
2018-09-25T13:36:11.364Z,22.3
2018-09-25T13:37:01.708Z,22.3
2018-09-25T13:37:51.814Z,22.2
2018-09-25T13:38:41.862Z,22.2
2018-09-25T13:39:31.859Z,22.2
2018-09-25T13:40:21.997Z,22.3
2018-09-25T13:41:12.104Z,22.3
2018-09-25T13:42:02.037Z,22.2
2018-09-25T13:42:52.469Z,22.3
2018-09-25T13:43:42.501Z,22.3
2018-09-25T13:44:31.039Z,22.2
2018-09-25T13:45:21.879Z,22.3
2018-09-25T13:46:11.859Z,22.2
2018-09-25T13:47:02.731Z,22.2
2018-09-25T13:47:52.786Z,22.3
2018-09-25T13:48:41.749Z,22.3
2018-09-25T13:49:32.981Z,22.3
2018-09-25T13:50:22.291Z,22.2
2018-09-25T13:51:12.791Z,22.3
2018-09-25T13:52:03.754Z,22.3
2018-09-25T13:52:52.091Z,22.2
2018-09-25T13:53:42.956Z,22.3
2018-09-25T13:54:32.871Z,22.3